X  Blizu METAR Podaci o vazduhoplovstvu        LGTS Thessaloniki Macedonia International
Temperatura
12°C Temperatura
11°C Tačka Rose
94% Vlaga



Vetar
6 KM/S
3 MPS
1 M/S
3 Čvorovi



-1°
VRB
Trenutna situacija

Mostly Clear Uglavnom jasno
Vazdušni pritisak 1014 (hPa) - 29.94 (inHg)
Vidljivost 6 (Milje) - 10 (km)
Aerodrom
Aerodromski kod. LGTS

Lokacija: Thessaloniki Macedonia International
Udaljenost: 85 (km)

Metar:
METAR LGTS 031850Z VRB03KT 9999 FEW015 12/11 Q1014 NOSIG

Vreme: 03-03-2024 20:50 EET